Time;durP1;ratioP1;P1;durP2;ratioP2;P2;SDS_P1;SDS_P2;PMS_P1;PMS_P2;Temp;Humidity;BMP_temperature;BMP_pressure;BME280_temperature;BME280_humidity;BME280_pressure;Samples;Min_cycle;Max_cycle;Signal;HPM_P1;HPM_P2
2022/03/06 00:02:49;;;;;;;20.35;8.23;;;;;;;-4.06;78.63;93331.25;6321684;28;20590;-66
2022/03/06 00:05:53;;;;;;;19.13;7.45;;;;;;;-4.08;78.85;93333.94;6322042;28;20481;-66
2022/03/06 00:08:54;;;;;;;28.92;9.07;;;;;;;-4.08;78.91;93333.94;6321732;28;20036;-66
2022/03/06 00:11:56;;;;;;;18.15;7.15;;;;;;;-4.10;79.49;93334.94;6321958;28;20059;-66
2022/03/06 00:14:59;;;;;;;16.33;6.85;;;;;;;-4.01;79.40;93329.19;6321779;28;20182;-65
2022/03/06 00:18:03;;;;;;;19.50;8.07;;;;;;;-4.00;78.83;93330.84;6322077;28;20061;-65
2022/03/06 00:21:09;;;;;;;21.75;8.05;;;;;;;-3.98;79.11;93330.75;6321841;28;20036;-65
2022/03/06 00:24:13;;;;;;;20.40;7.72;;;;;;;-3.86;78.84;93337.66;6320869;28;20044;-65
2022/03/06 00:27:15;;;;;;;16.20;7.18;;;;;;;-3.95;78.74;93333.13;6321173;28;20048;-65
2022/03/06 00:30:21;;;;;;;15.90;6.55;;;;;;;-3.98;78.88;93329.00;6321513;28;20044;-65
2022/03/06 00:33:25;;;;;;;15.80;7.10;;;;;;;-3.94;78.73;93339.88;6321874;28;20044;-65
2022/03/06 00:36:29;;;;;;;15.68;6.93;;;;;;;-3.87;78.40;93343.72;6321018;28;20605;-65
2022/03/06 00:39:34;;;;;;;15.80;7.13;;;;;;;-3.88;78.51;93342.06;6320923;28;20408;-65
2022/03/06 00:42:41;;;;;;;15.38;8.30;;;;;;;-3.86;78.43;93343.59;6321667;28;20040;-64
2022/03/06 00:45:49;;;;;;;10.63;6.32;;;;;;;-3.84;78.07;93354.59;6321086;28;20126;-65
2022/03/06 00:48:53;;;;;;;18.33;7.50;;;;;;;-4.02;78.51;93347.25;6321028;28;20040;-65
2022/03/06 00:51:54;;;;;;;15.55;6.18;;;;;;;-4.01;78.46;93359.19;6321001;28;20509;-65
2022/03/06 00:54:58;;;;;;;24.58;8.23;;;;;;;-3.91;78.32;93365.38;6321290;28;20044;-66
2022/03/06 00:58:05;;;;;;;17.13;7.45;;;;;;;-3.96;78.61;93369.97;6320836;28;20058;-65
2022/03/06 01:01:06;;;;;;;15.77;5.88;;;;;;;-3.92;78.54;93369.69;6320490;28;20059;-65
2022/03/06 01:04:10;;;;;;;12.80;6.32;;;;;;;-3.98;78.42;93369.28;6320826;28;20048;-65
2022/03/06 01:07:14;;;;;;;12.68;6.72;;;;;;;-4.16;78.57;93373.81;6320996;28;20043;-65
2022/03/06 01:10:19;;;;;;;12.90;6.30;;;;;;;-4.17;79.02;93370.44;6320648;28;20046;-66
2022/03/06 01:13:21;;;;;;;14.95;6.88;;;;;;;-4.20;78.91;93365.50;6320995;28;20518;-66
2022/03/06 01:16:24;;;;;;;;;;;;;;;-4.02;78.83;93384.03;6321241;28;20040;-65
2022/03/06 01:19:30;;;;;;;20.45;8.35;;;;;;;-4.07;78.66;93381.78;6320161;28;20451;-64
2022/03/06 01:22:34;;;;;;;22.08;8.65;;;;;;;-4.21;79.28;93375.88;6320683;28;20052;-65
2022/03/06 01:25:35;;;;;;;22.25;8.48;;;;;;;-3.95;78.61;93380.16;6320094;28;20078;-66
2022/03/06 01:28:39;;;;;;;14.18;7.22;;;;;;;-4.00;78.81;93389.09;6320289;28;20056;-65
2022/03/06 01:31:47;;;;;;;16.33;7.88;;;;;;;-4.07;78.81;93397.19;6320703;28;20036;-66
2022/03/06 01:34:49;;;;;;;11.13;5.38;;;;;;;-4.00;78.73;93401.91;6319242;28;20040;-65
2022/03/06 01:37:53;;;;;;;13.23;6.25;;;;;;;-3.94;78.61;93406.66;6320418;28;20032;-65
2022/03/06 01:40:54;;;;;;;12.95;6.47;;;;;;;-3.99;78.49;93401.00;6319816;28;20055;-65
2022/03/06 01:43:58;;;;;;;16.00;7.45;;;;;;;-4.05;78.98;93407.34;6319990;28;20048;-66
2022/03/06 01:47:02;;;;;;;13.95;6.30;;;;;;;-4.07;79.06;93407.44;6319056;28;20521;-65
2022/03/06 01:50:13;;;;;;;12.02;6.63;;;;;;;-4.02;79.18;93414.03;6320085;28;20143;-65
2022/03/06 01:53:15;;;;;;;13.07;5.97;;;;;;;-4.14;79.23;93406.19;6320565;28;20040;-65
2022/03/06 01:56:18;;;;;;;13.55;5.93;;;;;;;-4.08;78.83;93416.09;6325385;28;20040;-65
2022/03/06 01:59:23;;;;;;;9.05;5.43;;;;;;;-4.04;79.16;93411.56;6325064;28;20040;-65
2022/03/06 02:02:26;;;;;;;10.88;6.03;;;;;;;-3.90;78.38;93423.53;6324571;28;20078;-65
2022/03/06 02:05:30;;;;;;;12.23;6.15;;;;;;;-3.91;78.08;93422.69;6324663;28;20532;-66
2022/03/06 02:08:39;;;;;;;10.82;5.70;;;;;;;-4.07;78.54;93422.84;6324862;28;20048;-65
2022/03/06 02:11:41;;;;;;;12.32;6.55;;;;;;;-4.18;79.06;93425.28;6324454;28;20097;-65
2022/03/06 02:14:45;;;;;;;9.90;5.57;;;;;;;-3.99;78.65;93430.09;6324733;28;20085;-65
2022/03/06 02:17:46;;;;;;;8.18;5.20;;;;;;;-4.07;78.64;93433.13;6324174;28;20052;-65
2022/03/06 02:20:53;;;;;;;8.52;4.85;;;;;;;-4.02;78.88;93429.44;6324287;28;20089;-65
2022/03/06 02:23:54;;;;;;;12.13;6.07;;;;;;;-3.98;78.05;93441.19;6324246;28;20051;-65
2022/03/06 02:26:59;;;;;;;10.82;6.05;;;;;;;-4.01;77.89;93431.91;6324227;28;20479;-65
2022/03/06 02:30:10;;;;;;;;;;;;;;;-3.95;77.59;93440.97;6324632;28;20056;-65
2022/03/06 02:33:15;;;;;;;8.65;4.55;;;;;;;-4.00;77.67;93437.88;6324281;28;20398;-65
2022/03/06 02:36:19;;;;;;;11.73;6.47;;;;;;;-4.01;76.74;93442.19;6323975;28;20052;-65
2022/03/06 02:39:26;;;;;;;7.47;4.57;;;;;;;-4.02;77.28;93445.66;6324045;28;20085;-66
2022/03/06 02:42:30;;;;;;;10.93;5.65;;;;;;;-4.17;77.41;93457.72;6323740;28;20423;-65
2022/03/06 02:45:35;;;;;;;11.25;5.72;;;;;;;-4.24;77.96;93451.34;6323139;28;20154;-66
2022/03/06 02:48:36;;;;;;;10.43;5.55;;;;;;;-4.23;77.73;93462.44;6323667;28;20059;-66
2022/03/06 02:51:41;;;;;;;9.15;5.05;;;;;;;-4.14;77.81;93461.84;6324686;28;20503;-66
2022/03/06 02:54:45;;;;;;;9.38;5.70;;;;;;;-4.19;78.42;93480.13;6323788;28;20070;-65
2022/03/06 02:57:47;;;;;;;11.60;6.03;;;;;;;-4.17;77.97;93482.56;6323479;28;20093;-66
2022/03/06 03:00:48;;;;;;;9.30;5.25;;;;;;;-4.14;77.94;93485.78;6322010;28;20056;-66
2022/03/06 03:03:52;;;;;;;11.88;6.22;;;;;;;-4.08;78.41;93489.69;6323733;28;20269;-66
2022/03/06 03:07:00;;;;;;;11.07;6.32;;;;;;;-4.10;78.48;93500.09;6322273;28;20074;-65
2022/03/06 03:10:02;;;;;;;10.07;5.95;;;;;;;-4.08;78.38;93492.28;6322353;28;20055;-65
2022/03/06 03:13:04;;;;;;;7.70;4.17;;;;;;;-3.93;78.55;93495.66;6322571;28;20054;-65
2022/03/06 03:16:08;;;;;;;10.63;6.18;;;;;;;-3.91;78.83;93493.78;6323587;28;20039;-65
2022/03/06 03:19:10;;;;;;;12.50;5.90;;;;;;;-3.85;78.71;93488.25;6322559;28;20054;-65
2022/03/06 03:22:16;;;;;;;10.27;5.78;;;;;;;-3.93;78.53;93475.09;6323034;28;20051;-65
2022/03/06 03:25:20;;;;;;;9.07;5.40;;;;;;;-3.85;78.85;93483.97;6322795;28;20048;-67
2022/03/06 03:28:22;;;;;;;13.90;6.22;;;;;;;-3.77;78.12;93485.22;6322857;28;20048;-65
2022/03/06 03:31:26;;;;;;;10.30;6.32;;;;;;;-3.78;78.20;93501.56;6323013;28;20495;-66
2022/03/06 03:34:34;;;;;;;12.48;6.65;;;;;;;-3.81;78.17;93515.41;6323071;28;20490;-65
2022/03/06 03:37:37;;;;;;;13.45;7.25;;;;;;;-3.65;77.98;93505.00;6322198;28;20449;-65
2022/03/06 03:40:41;;;;;;;16.60;7.40;;;;;;;-3.62;77.53;93510.75;6321572;28;20044;-64
2022/03/06 03:43:47;;;;;;;15.23;6.78;;;;;;;-3.52;77.78;93520.44;6322570;28;20040;-66
2022/03/06 03:46:51;;;;;;;14.82;7.20;;;;;;;-3.45;77.68;93514.81;6322530;28;20418;-66
2022/03/06 03:49:52;;;;;;;15.75;6.47;;;;;;;-3.31;77.55;93534.50;6322399;28;20127;-67
2022/03/06 03:52:58;;;;;;;13.05;6.55;;;;;;;-3.28;77.44;93531.75;6321938;28;20036;-66
2022/03/06 03:56:04;;;;;;;14.18;7.35;;;;;;;-3.12;77.31;93538.44;6322457;28;20043;-64
2022/03/06 03:59:10;;;;;;;20.88;8.90;;;;;;;-3.12;76.76;93549.56;6322357;28;20056;-66
2022/03/06 04:02:13;;;;;;;16.77;7.50;;;;;;;-3.18;77.18;93545.63;6321000;28;20044;-66
2022/03/06 04:05:18;;;;;;;17.35;8.32;;;;;;;-3.07;77.51;93567.28;6321995;28;20190;-66
2022/03/06 04:08:22;;;;;;;18.73;7.80;;;;;;;-3.01;77.44;93567.69;6321856;28;20043;-66
2022/03/06 04:11:28;;;;;;;21.33;7.80;;;;;;;-2.95;77.26;93574.19;6321885;28;20060;-66
2022/03/06 04:14:32;;;;;;;19.33;7.93;;;;;;;-2.94;77.50;93575.84;6321089;28;20052;-67
2022/03/06 04:17:34;;;;;;;17.17;8.48;;;;;;;-2.76;77.28;93577.19;6320909;28;20054;-66
2022/03/06 04:20:39;;;;;;;16.08;7.82;;;;;;;-2.71;77.22;93587.19;6321617;28;20495;-66
2022/03/06 04:23:41;;;;;;;17.40;7.68;;;;;;;-2.66;77.13;93592.03;6320857;28;20059;-67
2022/03/06 04:26:45;;;;;;;17.33;7.47;;;;;;;-2.62;77.00;93589.16;6321063;28;20052;-67
2022/03/06 04:29:49;;;;;;;19.27;7.10;;;;;;;-2.69;76.54;93562.16;6321508;28;20048;-67
2022/03/06 04:32:51;;;;;;;15.63;7.75;;;;;;;-2.33;76.38;93614.72;6320968;28;20044;-67
2022/03/06 04:35:55;;;;;;;23.58;9.90;;;;;;;-2.26;76.36;93624.50;6321370;28;20040;-67
2022/03/06 04:38:59;;;;;;;14.80;7.00;;;;;;;-2.14;76.44;93622.88;6321529;28;20036;-66
2022/03/06 04:42:00;;;;;;;;;;;;;;;-1.90;76.18;93612.63;6321423;28;20118;-66
2022/03/06 04:45:04;;;;;;;20.23;7.40;;;;;;;-1.74;75.80;93627.06;6321627;28;19920;-66
2022/03/06 04:48:05;;;;;;;18.40;8.52;;;;;;;-1.58;75.39;93622.50;6320569;28;20522;-66
2022/03/06 04:51:07;;;;;;;19.45;7.80;;;;;;;-1.32;75.48;93627.59;6320694;28;20510;-66
2022/03/06 04:54:08;;;;;;;16.30;7.88;;;;;;;-0.97;74.76;93649.09;6320823;28;20036;-67
2022/03/06 04:57:09;;;;;;;25.48;9.63;;;;;;;-0.85;74.50;93646.59;6320325;28;20514;-66
2022/03/06 05:00:15;;;;;;;20.27;9.07;;;;;;;-0.69;74.37;93645.38;6320884;28;20427;-65
2022/03/06 05:03:22;;;;;;;12.20;5.57;;;;;;;-0.44;74.17;93658.25;6320683;28;20040;-66
2022/03/06 05:06:23;;;;;;;;;;;;;;;-0.40;73.59;93676.00;6320869;28;20120;-65
2022/03/06 05:09:29;;;;;;;11.55;6.22;;;;;;;-0.53;74.07;93668.31;6320944;28;19920;-65
2022/03/06 05:12:31;;;;;;;12.05;5.68;;;;;;;-0.60;74.10;93666.28;6320241;28;20059;-65
2022/03/06 05:15:35;;;;;;;7.97;4.70;;;;;;;-0.61;74.34;93685.31;6320093;28;20044;-66
2022/03/06 05:18:36;;;;;;;7.20;4.10;;;;;;;-0.49;73.66;93685.22;6319813;28;20459;-66
2022/03/06 05:21:41;;;;;;;6.32;4.28;;;;;;;-0.38;73.37;93684.47;6320545;28;20040;-66
2022/03/06 05:24:42;;;;;;;6.18;3.38;;;;;;;-0.25;73.18;93681.81;6320274;28;20135;-66
2022/03/06 05:27:44;;;;;;;4.70;3.25;;;;;;;-0.09;72.96;93671.97;6319648;28;20056;-65
2022/03/06 05:30:47;;;;;;;7.40;4.60;;;;;;;0.08;73.11;93678.47;6319889;28;20044;-64
2022/03/06 05:33:55;;;;;;;7.45;4.57;;;;;;;0.17;73.04;93671.78;6320242;28;20052;-66
2022/03/06 05:36:57;;;;;;;6.97;4.07;;;;;;;0.14;72.82;93677.19;6320005;28;20040;-66
2022/03/06 05:40:03;;;;;;;;;;;;;;;0.14;72.35;93672.00;6320528;28;20427;-66
2022/03/06 05:43:07;;;;;;;6.15;4.00;;;;;;;0.04;72.47;93671.06;6320032;28;19920;-65
2022/03/06 05:46:15;;;;;;;7.47;4.45;;;;;;;-0.02;72.96;93668.00;6320211;28;20048;-65
2022/03/06 05:49:16;;;;;;;4.72;3.40;;;;;;;-0.01;72.15;93674.81;6319603;28;20047;-65
2022/03/06 05:52:20;;;;;;;7.88;4.63;;;;;;;0.05;72.13;93688.22;6319546;28;20430;-65
2022/03/06 05:55:22;;;;;;;6.18;3.95;;;;;;;0.14;72.63;93698.72;6320207;28;20044;-64
2022/03/06 05:58:23;;;;;;;6.38;4.25;;;;;;;0.26;71.57;93701.31;6320008;28;20044;-66
2022/03/06 06:01:29;;;;;;;6.00;4.15;;;;;;;0.37;71.05;93699.56;6301965;28;20044;-65
2022/03/06 06:04:30;;;;;;;8.35;3.80;;;;;;;0.44;70.93;93700.72;6319738;28;20491;-65
2022/03/06 06:07:37;;;;;;;9.30;3.70;;;;;;;0.52;70.72;93717.44;6320595;28;20055;-65
2022/03/06 06:10:41;;;;;;;6.80;3.60;;;;;;;1.01;70.23;93724.00;6320178;28;20054;-67
2022/03/06 06:13:50;;;;;;;7.75;4.25;;;;;;;1.53;69.35;93740.66;6320364;28;20063;-70
2022/03/06 06:16:54;;;;;;;7.72;4.25;;;;;;;2.81;66.78;93749.22;6319092;28;20450;-70
2022/03/06 06:20:00;;;;;;;4.68;3.50;;;;;;;4.53;63.47;93765.38;6320025;28;20048;-71
2022/03/06 06:23:02;;;;;;;6.75;4.30;;;;;;;4.89;62.72;93785.44;6318195;28;20419;-71
2022/03/06 06:26:03;;;;;;;6.05;3.97;;;;;;;4.36;63.49;93791.16;6319584;28;20051;-69
2022/03/06 06:29:07;;;;;;;5.68;3.88;;;;;;;4.16;64.78;93794.69;6319411;28;20605;-69
2022/03/06 06:32:08;;;;;;;5.82;3.33;;;;;;;4.13;64.55;93785.38;6318865;28;20507;-69
2022/03/06 06:35:10;;;;;;;8.10;4.75;;;;;;;4.00;63.83;93806.47;6319160;28;20048;-69
2022/03/06 06:38:11;;;;;;;6.93;3.90;;;;;;;3.99;63.01;93810.03;6319151;28;20040;-70
2022/03/06 06:41:15;;;;;;;6.88;4.80;;;;;;;3.92;63.20;93815.91;6321470;28;20040;-69
2022/03/06 06:44:24;;;;;;;6.03;3.72;;;;;;;4.65;63.10;93821.56;6323856;28;20047;-67
2022/03/06 06:47:27;;;;;;;5.43;3.58;;;;;;;4.63;63.41;93828.69;6323927;28;20123;-68
2022/03/06 06:50:28;;;;;;;6.78;4.50;;;;;;;5.62;62.02;93839.56;6323406;28;20052;-65
2022/03/06 06:53:32;;;;;;;4.68;3.30;;;;;;;7.08;59.29;93849.84;6323833;28;20044;-65
2022/03/06 06:56:37;;;;;;;6.70;4.43;;;;;;;8.56;55.85;93834.84;6322896;28;20058;-65
2022/03/06 06:59:41;;;;;;;7.63;4.38;;;;;;;9.52;53.11;93844.66;6323172;28;20051;-65
2022/03/06 07:02:46;;;;;;;6.35;4.25;;;;;;;10.19;51.12;93858.22;6323337;28;20046;-63
2022/03/06 07:05:49;;;;;;;5.07;3.97;;;;;;;10.27;51.43;93850.31;6323163;28;20093;-65
2022/03/06 07:08:54;;;;;;;5.78;3.60;;;;;;;11.44;50.19;93879.16;6322973;28;20432;-66
2022/03/06 07:12:00;;;;;;;4.82;3.80;;;;;;;12.01;47.30;93869.88;6323041;28;20143;-67
2022/03/06 07:15:04;;;;;;;5.82;3.92;;;;;;;12.23;45.61;93879.53;6322972;28;20051;-66
2022/03/06 07:18:07;;;;;;;;;;;;;;;12.81;45.51;93877.78;6323316;28;20047;-66
2022/03/06 07:21:12;;;;;;;8.68;4.07;;;;;;;12.89;44.03;93883.94;6323229;28;19919;-67
2022/03/06 07:24:16;;;;;;;5.85;3.70;;;;;;;13.27;42.61;93876.63;6322774;28;20052;-69
2022/03/06 07:27:21;;;;;;;5.57;3.38;;;;;;;14.20;42.17;93879.97;6322604;28;20489;-69
2022/03/06 07:30:25;;;;;;;4.10;3.40;;;;;;;14.88;41.28;93877.44;6303876;28;20469;-69
2022/03/06 07:33:29;;;;;;;5.55;3.70;;;;;;;15.01;41.82;93885.44;6322490;28;20044;-67
2022/03/06 07:36:33;;;;;;;5.00;3.70;;;;;;;15.01;41.52;93884.63;6322540;28;20044;-67
2022/03/06 07:39:38;;;;;;;5.28;3.20;;;;;;;14.29;40.78;93870.03;6322577;28;20578;-67
2022/03/06 07:42:42;;;;;;;5.82;3.83;;;;;;;14.36;40.11;93877.00;6322435;28;20058;-68
2022/03/06 07:45:47;;;;;;;6.15;3.30;;;;;;;14.97;36.98;93884.19;6322590;28;20047;-67
2022/03/06 07:48:51;;;;;;;5.72;4.30;;;;;;;15.36;34.67;93876.53;6321082;28;20533;-68
2022/03/06 07:51:56;;;;;;;6.07;3.35;;;;;;;15.87;33.61;93874.13;6321818;28;20336;-68
2022/03/06 07:55:00;;;;;;;7.07;3.55;;;;;;;17.13;33.33;93885.41;6321969;28;20044;-67
2022/03/06 07:58:05;;;;;;;7.25;3.50;;;;;;;18.36;31.81;93885.69;6320772;28;20427;-69
2022/03/06 08:01:10;;;;;;;4.82;2.83;;;;;;;19.96;29.79;93899.69;6322076;28;20040;-67
2022/03/06 08:04:15;;;;;;;4.40;3.25;;;;;;;20.88;28.23;93904.44;6321953;28;20039;-66
2022/03/06 08:07:20;;;;;;;7.88;3.83;;;;;;;21.44;27.36;93902.88;6321904;28;20124;-68
2022/03/06 08:10:25;;;;;;;5.43;3.47;;;;;;;22.39;26.87;93908.50;6321678;28;20040;-66
2022/03/06 08:13:30;;;;;;;7.03;4.00;;;;;;;23.33;25.48;93906.84;6321375;28;20052;-65
2022/03/06 08:16:34;;;;;;;6.25;4.13;;;;;;;23.97;24.86;93902.41;6321478;28;20341;-66
2022/03/06 08:19:38;;;;;;;3.63;2.90;;;;;;;24.26;24.24;93914.72;6321697;28;20422;-67
2022/03/06 08:22:42;;;;;;;4.80;3.22;;;;;;;24.69;23.90;93919.13;6320252;28;20032;-65
2022/03/06 08:25:47;;;;;;;5.72;3.63;;;;;;;24.99;23.62;93923.84;6321576;28;20115;-65
2022/03/06 08:28:51;;;;;;;7.03;3.97;;;;;;;25.53;22.06;93923.59;6320271;28;20138;-64
2022/03/06 08:31:55;;;;;;;4.60;3.15;;;;;;;25.91;21.59;93926.94;6320032;28;20040;-64
2022/03/06 08:35:00;;;;;;;5.55;2.92;;;;;;;26.42;20.69;93935.03;6321522;28;20467;-65
2022/03/06 08:38:05;;;;;;;5.60;2.83;;;;;;;26.87;19.67;93941.50;6321397;28;20050;-65
2022/03/06 08:41:10;;;;;;;5.55;2.92;;;;;;;26.45;18.79;93943.69;6321294;28;20418;-64
2022/03/06 08:44:14;;;;;;;4.20;3.17;;;;;;;26.59;17.34;93940.19;6321125;28;20043;-63
2022/03/06 08:47:19;;;;;;;5.00;3.17;;;;;;;27.29;16.26;93942.25;6321014;28;20055;-65
2022/03/06 08:50:24;;;;;;;9.93;6.13;;;;;;;27.47;15.42;93948.94;6320949;28;20044;-64
2022/03/06 08:53:28;;;;;;;4.95;3.97;;;;;;;27.63;14.67;93953.19;6319741;28;20506;-63
2022/03/06 08:56:32;;;;;;;6.10;3.95;;;;;;;27.81;14.39;93954.47;6319635;28;20040;-64
2022/03/06 08:59:36;;;;;;;5.57;3.85;;;;;;;28.08;13.48;93964.88;6320780;28;20102;-64
2022/03/06 09:02:39;;;;;;;4.00;3.30;;;;;;;28.10;12.28;93962.66;6320126;28;20044;-63
2022/03/06 09:05:46;;;;;;;7.03;3.95;;;;;;;28.31;12.14;93962.53;6320589;28;20036;-65
2022/03/06 09:08:50;;;;;;;7.00;4.18;;;;;;;29.01;11.26;93960.34;6320668;28;20495;-63
2022/03/06 09:11:55;;;;;;;7.40;3.78;;;;;;;29.56;11.06;93972.81;6320535;28;20143;-64
2022/03/06 09:15:00;;;;;;;6.85;3.95;;;;;;;29.71;10.80;93972.66;6321138;28;20036;-65
2022/03/06 09:18:07;;;;;;;6.47;3.67;;;;;;;29.85;10.47;93965.41;6320571;28;20043;-63
2022/03/06 09:21:10;;;;;;;8.10;4.15;;;;;;;29.98;10.49;93978.25;6320325;28;20142;-64
2022/03/06 09:24:15;;;;;;;10.93;4.93;;;;;;;30.05;10.27;93969.75;6319343;28;20421;-64
2022/03/06 09:27:19;;;;;;;10.55;4.93;;;;;;;29.86;10.00;93975.16;6319198;28;20568;-65
2022/03/06 09:30:24;;;;;;;8.35;4.72;;;;;;;29.57;10.19;93982.53;6320195;28;20044;-65
2022/03/06 09:33:29;;;;;;;10.82;5.32;;;;;;;29.23;10.36;93991.56;6320136;28;20431;-64
2022/03/06 09:36:35;;;;;;;8.20;4.70;;;;;;;28.62;10.74;93996.44;6320457;28;20043;-63
2022/03/06 09:39:39;;;;;;;9.52;4.95;;;;;;;27.30;11.10;93998.66;6319981;28;20048;-64
2022/03/06 09:42:44;;;;;;;10.75;5.47;;;;;;;26.97;10.92;94010.03;6320656;28;20044;-64
2022/03/06 09:45:50;;;;;;;9.25;5.10;;;;;;;27.41;11.00;94020.25;6320117;28;20036;-64
2022/03/06 09:48:55;;;;;;;8.85;5.15;;;;;;;28.01;10.38;94018.41;6320059;28;20036;-64
2022/03/06 09:52:05;;;;;;;8.45;4.63;;;;;;;28.28;9.49;94019.88;6319998;28;20040;-64
2022/03/06 09:55:12;;;;;;;9.82;5.38;;;;;;;28.27;9.66;94024.47;6319988;28;20044;-64
2022/03/06 09:58:16;;;;;;;9.93;4.95;;;;;;;28.49;9.40;94032.22;6319827;28;20036;-64
2022/03/06 10:01:20;;;;;;;8.73;5.38;;;;;;;28.29;9.49;94035.03;6319764;28;20036;-65
2022/03/06 10:04:29;;;;;;;9.15;5.22;;;;;;;28.02;9.73;94033.53;6320065;28;20047;-65
2022/03/06 10:07:34;;;;;;;7.50;5.18;;;;;;;27.74;9.83;94033.09;6319937;28;20498;-64
2022/03/06 10:10:39;;;;;;;13.40;5.70;;;;;;;27.72;10.16;94034.47;6319894;28;20036;-64
2022/03/06 10:13:45;;;;;;;9.85;5.65;;;;;;;27.02;10.30;94045.09;6319435;28;20427;-63
2022/03/06 10:17:18;;;;;;;9.10;6.07;;;;;;;26.63;10.81;94051.84;6323653;28;20044;-64
2022/03/06 10:20:29;;;;;;;12.63;6.72;;;;;;;25.62;10.96;94050.44;6322915;28;20071;-64
2022/03/06 10:23:33;;;;;;;13.65;6.95;;;;;;;24.15;12.23;94053.53;6324593;28;20043;-65
2022/03/06 10:26:39;;;;;;;10.18;6.47;;;;;;;22.22;12.82;94061.16;6324288;28;20572;-63
2022/03/06 10:29:44;;;;;;;11.50;7.38;;;;;;;20.58;13.61;94060.34;6324278;28;20040;-64
2022/03/06 10:32:49;;;;;;;11.55;7.85;;;;;;;19.54;14.31;94053.53;6324007;28;20043;-64
2022/03/06 10:35:58;;;;;;;12.95;7.55;;;;;;;18.58;15.15;94055.69;6323994;28;20040;-64
2022/03/06 10:39:10;;;;;;;12.77;7.18;;;;;;;17.49;15.77;94053.06;6323863;28;20462;-64
2022/03/06 10:42:22;;;;;;;8.88;6.85;;;;;;;16.90;16.39;94062.03;6323586;28;20047;-64
2022/03/06 10:45:27;;;;;;;12.40;8.23;;;;;;;15.66;17.27;94067.81;6323712;28;20407;-64
2022/03/06 10:48:33;;;;;;;9.13;6.40;;;;;;;14.70;18.13;94073.84;6323727;28;20101;-64
2022/03/06 10:51:44;;;;;;;10.57;6.70;;;;;;;14.11;18.70;94074.16;6323927;28;20052;-63
2022/03/06 10:54:55;;;;;;;11.30;7.22;;;;;;;13.90;19.04;94070.50;6323893;28;20499;-65
2022/03/06 10:58:02;;;;;;;16.20;7.28;;;;;;;13.66;19.58;94076.94;6323430;28;20503;-65
2022/03/06 11:01:07;;;;;;;13.82;7.60;;;;;;;12.90;20.24;94081.66;6321627;28;20052;-65
2022/03/06 11:04:16;;;;;;;12.32;7.30;;;;;;;11.60;21.66;94087.03;6323674;28;20048;-64
2022/03/06 11:07:21;;;;;;;12.93;7.80;;;;;;;10.15;23.43;94088.13;6323088;28;20040;-64
2022/03/06 11:10:28;;;;;;;12.98;6.07;;;;;;;8.85;25.18;94089.50;6323344;28;20550;-64
2022/03/06 11:13:33;;;;;;;11.90;6.30;;;;;;;7.74;26.40;94089.25;6323018;28;20053;-65
2022/03/06 11:16:41;;;;;;;15.60;6.45;;;;;;;6.91;28.15;94101.63;6323276;28;20059;-64
2022/03/06 11:19:46;;;;;;;8.63;6.45;;;;;;;6.20;28.96;94113.44;6322766;28;20048;-64
2022/03/06 11:23:06;;;;;;;18.40;8.70;;;;;;;5.55;29.70;94120.19;6322944;28;20051;-65
2022/03/06 11:26:12;;;;;;;17.38;7.57;;;;;;;4.89;30.82;94126.75;6322032;28;20036;-64
2022/03/06 11:29:30;;;;;;;12.75;6.88;;;;;;;4.37;31.98;94133.81;6323117;28;20055;-65
2022/03/06 11:32:39;;;;;;;15.95;6.85;;;;;;;3.71;33.17;94144.50;6322884;28;20043;-64
2022/03/06 11:35:46;;;;;;;13.90;6.60;;;;;;;3.06;35.12;94143.63;6322759;28;20040;-65
2022/03/06 11:38:51;;;;;;;15.05;7.40;;;;;;;2.68;35.40;94144.00;6322741;28;20044;-64
2022/03/06 11:41:59;;;;;;;19.17;7.95;;;;;;;2.33;35.31;94151.91;6322874;28;20098;-65
2022/03/06 11:45:03;;;;;;;21.35;10.38;;;;;;;2.04;36.04;94154.94;6322537;28;20044;-64
2022/03/06 11:48:10;;;;;;;14.50;8.57;;;;;;;1.68;36.84;94159.31;6322534;28;20200;-65
2022/03/06 11:51:29;;;;;;;10.18;7.35;;;;;;;1.45;37.72;94168.75;6322499;28;20512;-64
2022/03/06 11:54:44;;;;;;;12.38;5.90;;;;;;;1.12;38.45;94174.59;6322246;28;20047;-64
2022/03/06 11:57:50;;;;;;;14.25;6.43;;;;;;;1.06;38.00;94183.63;6322013;28;20044;-65
2022/03/06 12:00:55;;;;;;;13.02;6.22;;;;;;;1.25;37.79;94196.09;6322150;28;20177;-64
2022/03/06 12:04:26;;;;;;;12.77;6.22;;;;;;;1.58;37.75;94204.97;6322287;28;20048;-64
2022/03/06 12:07:32;;;;;;;12.10;6.28;;;;;;;1.59;38.10;94222.19;6313326;28;20047;-65
2022/03/06 12:10:43;;;;;;;15.20;7.45;;;;;;;1.52;38.18;94231.34;6321694;28;20430;-65
2022/03/06 12:13:51;;;;;;;10.70;6.60;;;;;;;1.42;38.86;94223.41;6321720;28;20052;-64
2022/03/06 12:17:07;;;;;;;12.48;7.03;;;;;;;1.10;39.09;94230.84;6321520;28;20499;-64
2022/03/06 12:20:22;;;;;;;16.63;6.60;;;;;;;0.87;39.51;94233.25;6321674;28;20508;-64
2022/03/06 12:23:28;;;;;;;16.15;7.80;;;;;;;1.01;40.12;94236.66;6321794;28;20040;-65
2022/03/06 12:26:44;;;;;;;13.73;7.90;;;;;;;1.31;40.22;94244.88;6321629;28;20048;-64
2022/03/06 12:30:01;;;;;;;17.05;7.70;;;;;;;1.22;39.66;94261.06;6321548;28;20044;-64
2022/03/06 12:33:27;;;;;;;13.38;6.80;;;;;;;1.15;39.91;94262.44;6320768;28;20044;-65
2022/03/06 12:36:33;;;;;;;14.93;7.18;;;;;;;1.00;40.35;94261.72;6321154;28;20036;-65
2022/03/06 12:39:39;;;;;;;17.30;6.68;;;;;;;1.01;41.00;94267.75;6320676;28;20177;-64
2022/03/06 12:42:46;;;;;;;15.52;6.68;;;;;;;0.91;41.22;94267.56;6321228;28;20051;-64
2022/03/06 12:45:51;;;;;;;15.90;8.10;;;;;;;0.80;41.72;94285.56;6321267;28;20040;-65
2022/03/06 12:48:54;;;;;;;13.32;6.97;;;;;;;0.41;41.99;94295.06;6320832;28;20134;-65
2022/03/06 12:52:00;;;;;;;11.43;6.55;;;;;;;0.12;43.04;94300.41;6321006;28;20036;-64
2022/03/06 12:55:14;;;;;;;11.75;7.18;;;;;;;-0.11;43.40;94308.84;6320721;28;20054;-65
2022/03/06 12:58:21;;;;;;;13.45;6.55;;;;;;;-0.38;44.90;94311.41;6320611;28;20040;-64
2022/03/06 13:01:26;;;;;;;13.30;6.45;;;;;;;-0.55;45.25;94331.34;6320532;28;20110;-65
2022/03/06 13:04:32;;;;;;;13.43;6.90;;;;;;;-1.07;46.53;94339.72;6321222;28;20054;-65
2022/03/06 13:07:37;;;;;;;14.63;6.95;;;;;;;-1.47;48.17;94341.22;6320654;28;20502;-64
2022/03/06 13:10:42;;;;;;;14.10;7.70;;;;;;;-1.89;49.49;94346.19;6320356;28;20047;-65
2022/03/06 13:13:46;;;;;;;12.13;6.45;;;;;;;-2.04;49.46;94347.03;6320668;28;20056;-65
2022/03/06 13:16:56;;;;;;;11.98;5.93;;;;;;;-2.22;50.12;94350.66;6320811;28;20040;-64
2022/03/06 13:20:01;;;;;;;12.70;6.03;;;;;;;-2.39;50.92;94341.28;6320395;28;20460;-65
2022/03/06 13:23:18;;;;;;;14.60;6.88;;;;;;;-2.60;51.67;94351.00;6320274;28;20048;-64
2022/03/06 13:26:23;;;;;;;10.32;5.47;;;;;;;-2.79;52.76;94374.31;6320477;28;20136;-64
2022/03/06 13:29:28;;;;;;;11.23;5.45;;;;;;;-3.01;52.70;94378.00;6320310;28;20048;-64
2022/03/06 13:32:43;;;;;;;12.25;5.03;;;;;;;-3.13;53.38;94383.78;6320010;28;20043;-64
2022/03/06 13:35:48;;;;;;;12.20;4.93;;;;;;;-3.27;53.19;94394.78;6320095;28;20055;-66
2022/03/06 13:39:02;;;;;;;8.20;5.00;;;;;;;-3.32;54.31;94390.75;6320120;28;20052;-64
2022/03/06 13:42:05;;;;;;;8.63;4.77;;;;;;;-3.54;54.52;94403.84;6320267;28;20048;-64
2022/03/06 13:45:15;;;;;;;7.10;4.18;;;;;;;-3.56;53.87;94418.53;6320209;28;20040;-65
2022/03/06 13:48:24;;;;;;;7.00;4.15;;;;;;;-3.51;54.78;94426.84;6319247;28;20044;-65
2022/03/06 13:51:30;;;;;;;12.02;6.03;;;;;;;-3.78;55.44;94439.31;6324073;28;20521;-65
2022/03/06 13:54:38;;;;;;;12.18;4.40;;;;;;;-3.90;55.71;94440.72;6324972;28;20074;-65
2022/03/06 13:58:08;;;;;;;8.20;4.43;;;;;;;-4.01;55.66;94445.53;6323363;28;20506;-64
2022/03/06 14:01:16;;;;;;;11.23;4.57;;;;;;;-4.01;55.66;94463.50;6306580;28;20058;-64
2022/03/06 14:04:26;;;;;;;11.18;5.38;;;;;;;-3.92;55.02;94468.22;6323710;28;20036;-64
2022/03/06 14:07:32;;;;;;;10.88;5.65;;;;;;;-3.84;54.90;94471.25;6324878;28;20148;-65
2022/03/06 14:11:03;;;;;;;9.70;5.38;;;;;;;-3.85;55.00;94485.84;6324662;28;20044;-64
2022/03/06 14:14:06;;;;;;;9.20;4.97;;;;;;;-4.07;55.70;94501.41;6318169;28;20050;-64
2022/03/06 14:17:14;;;;;;;14.40;6.22;;;;;;;-4.19;55.59;94502.00;6324381;28;20549;-64
2022/03/06 14:20:18;;;;;;;10.23;4.35;;;;;;;-4.13;55.70;94511.97;6306220;28;20052;-66
2022/03/06 14:23:23;;;;;;;9.27;4.65;;;;;;;-4.10;55.56;94516.97;6323555;28;20036;-64
2022/03/06 14:26:27;;;;;;;;;;;;;;;-4.04;54.31;94521.00;6323392;28;20525;-65
2022/03/06 14:29:34;;;;;;;12.15;5.80;;;;;;;-3.98;55.58;94525.03;6324344;28;19920;-64
2022/03/06 14:32:40;;;;;;;11.73;6.22;;;;;;;-4.10;55.97;94529.81;6324306;28;20420;-65